createdAt,value
2018-09-18T00:02:19.155Z,12.62
2018-09-18T00:04:48.528Z,12.55
2018-09-18T00:07:22.708Z,12.60
2018-09-18T00:09:51.736Z,12.66
2018-09-18T00:12:20.944Z,12.49
2018-09-18T00:14:50.020Z,12.45
2018-09-18T00:17:19.286Z,12.50
2018-09-18T00:19:48.625Z,12.59
2018-09-18T00:22:17.845Z,12.53
2018-09-18T00:24:47.226Z,12.47
2018-09-18T00:27:16.535Z,12.44
2018-09-18T00:29:45.928Z,12.39
2018-09-18T00:32:15.180Z,12.39
2018-09-18T00:34:44.344Z,12.35
2018-09-18T00:37:13.568Z,12.34
2018-09-18T00:39:42.836Z,12.25
2018-09-18T00:42:12.057Z,12.31
2018-09-18T00:44:41.204Z,12.32
2018-09-18T00:47:10.528Z,12.25
2018-09-18T00:49:39.749Z,12.24
2018-09-18T00:52:09.126Z,12.17
2018-09-18T00:54:38.396Z,12.16
2018-09-18T00:57:07.546Z,12.15
2018-09-18T00:59:36.703Z,12.19
2018-09-18T01:02:05.837Z,12.16
2018-09-18T01:04:35.219Z,12.15
2018-09-18T01:07:04.544Z,12.16
2018-09-18T01:09:33.789Z,12.12
2018-09-18T01:12:03.173Z,12.17
2018-09-18T01:14:33.191Z,12.08
2018-09-18T01:17:02.544Z,12.04
2018-09-18T01:19:31.868Z,12.01
2018-09-18T01:22:01.144Z,11.93
2018-09-18T01:24:30.303Z,12.05
2018-09-18T01:26:59.871Z,12.04
2018-09-18T01:29:29.120Z,11.95
2018-09-18T01:31:58.552Z,11.93
2018-09-18T01:34:27.727Z,11.90
2018-09-18T01:36:57.190Z,11.93
2018-09-18T01:39:26.411Z,11.94
2018-09-18T01:41:55.664Z,11.87
2018-09-18T01:44:25.744Z,11.88
2018-09-18T01:46:55.201Z,11.78
2018-09-18T01:49:24.429Z,11.82
2018-09-18T01:51:53.795Z,11.81
2018-09-18T01:54:22.883Z,11.72
2018-09-18T01:56:52.250Z,11.81
2018-09-18T01:59:22.049Z,11.82
2018-09-18T02:01:51.392Z,11.71
2018-09-18T02:04:20.447Z,11.73
2018-09-18T02:06:50.143Z,11.74
2018-09-18T02:09:19.404Z,11.77
2018-09-18T02:11:48.887Z,11.81
2018-09-18T02:14:18.544Z,11.71
2018-09-18T02:16:47.808Z,11.69
2018-09-18T02:19:16.930Z,11.75
2018-09-18T02:21:46.095Z,11.76
2018-09-18T02:24:15.489Z,11.77
2018-09-18T02:26:44.797Z,11.73
2018-09-18T02:29:14.072Z,11.64
2018-09-18T02:31:43.292Z,11.65
2018-09-18T02:34:12.485Z,11.73
2018-09-18T02:36:41.716Z,11.58
2018-09-18T02:39:12.508Z,11.57
2018-09-18T02:41:42.477Z,11.54
2018-09-18T02:44:11.752Z,11.55
2018-09-18T02:46:41.113Z,11.55
2018-09-18T02:49:10.719Z,11.60
2018-09-18T02:51:40.040Z,11.54
2018-09-18T02:54:09.800Z,11.57
2018-09-18T02:56:39.064Z,11.60
2018-09-18T02:59:08.115Z,11.54
2018-09-18T03:01:37.655Z,11.61
2018-09-18T03:04:07.348Z,11.51
2018-09-18T03:06:36.724Z,11.53
2018-09-18T03:09:07.924Z,11.48
2018-09-18T03:11:37.496Z,11.48
2018-09-18T03:14:07.211Z,11.50
2018-09-18T03:16:38.335Z,11.40
2018-09-18T03:19:08.057Z,11.41
2018-09-18T03:21:37.304Z,11.43
2018-09-18T03:24:08.280Z,11.52
2018-09-18T03:26:38.265Z,11.45
2018-09-18T03:29:07.706Z,11.39
2018-09-18T03:31:36.864Z,11.39
2018-09-18T03:34:06.369Z,11.36
2018-09-18T03:36:37.007Z,11.40
2018-09-18T03:39:07.753Z,11.38
2018-09-18T03:41:37.428Z,11.37
2018-09-18T03:44:06.684Z,11.32
2018-09-18T03:46:36.276Z,11.39
2018-09-18T03:49:05.594Z,11.52
2018-09-18T03:51:34.837Z,11.49
2018-09-18T03:54:04.191Z,11.47
2018-09-18T03:56:33.669Z,11.57
2018-09-18T03:59:03.022Z,11.51
2018-09-18T04:04:27.681Z,11.37
2018-09-18T04:06:56.400Z,11.39
2018-09-18T04:09:25.356Z,11.33
2018-09-18T04:11:54.362Z,11.40
2018-09-18T04:14:23.028Z,11.42
2018-09-18T04:16:51.748Z,11.39
2018-09-18T04:19:20.470Z,11.43
2018-09-18T04:21:49.192Z,11.29
2018-09-18T04:24:19.013Z,11.12
2018-09-18T04:26:48.124Z,11.18
2018-09-18T04:29:17.255Z,11.16
2018-09-18T04:31:46.400Z,11.23
2018-09-18T04:34:15.002Z,11.23
2018-09-18T04:36:43.722Z,11.32
2018-09-18T04:39:13.509Z,11.22
2018-09-18T04:41:42.239Z,11.19
2018-09-18T04:44:11.452Z,11.15
2018-09-18T04:46:40.285Z,11.22
2018-09-18T04:49:09.101Z,11.23
2018-09-18T04:51:37.713Z,11.18
2018-09-18T04:54:07.828Z,11.17
2018-09-18T04:56:36.740Z,11.26
2018-09-18T04:59:08.640Z,11.33
2018-09-18T05:01:37.794Z,11.31
2018-09-18T05:04:06.660Z,11.31
2018-09-18T05:06:35.731Z,11.27
2018-09-18T05:09:06.544Z,11.23
2018-09-18T05:11:35.416Z,11.23
2018-09-18T05:14:04.193Z,11.32
2018-09-18T05:16:33.690Z,11.30
2018-09-18T05:19:02.758Z,11.38
2018-09-18T05:21:31.497Z,11.37
2018-09-18T05:24:00.353Z,11.44
2018-09-18T05:26:29.126Z,11.58
2018-09-18T05:28:58.148Z,11.61
2018-09-18T05:31:26.872Z,11.62
2018-09-18T05:33:56.235Z,11.68
2018-09-18T05:36:24.876Z,11.75
2018-09-18T05:38:54.158Z,11.91
2018-09-18T05:41:23.773Z,12.07
2018-09-18T05:43:52.331Z,12.07
2018-09-18T05:46:21.342Z,12.10
2018-09-18T05:48:50.994Z,12.24
2018-09-18T05:51:20.244Z,12.31
2018-09-18T05:53:49.339Z,12.36
2018-09-18T05:56:19.308Z,12.42
2018-09-18T05:58:50.301Z,12.71
2018-09-18T06:01:23.228Z,12.73
2018-09-18T06:03:52.507Z,12.91
2018-09-18T06:06:22.171Z,12.93
2018-09-18T06:08:52.397Z,13.20
2018-09-18T06:11:23.906Z,13.33
2018-09-18T06:13:55.142Z,13.49
2018-09-18T06:16:26.994Z,13.81
2018-09-18T06:18:56.725Z,14.19
2018-09-18T06:21:28.295Z,14.31
2018-09-18T06:23:58.436Z,14.56
2018-09-18T06:26:28.104Z,14.71
2018-09-18T06:28:58.787Z,14.85
2018-09-18T06:31:30.611Z,15.00
2018-09-18T06:33:59.856Z,15.09
2018-09-18T06:36:30.971Z,15.23
2018-09-18T06:39:00.232Z,15.31
2018-09-18T06:41:32.718Z,15.38
2018-09-18T06:44:08.215Z,15.41
2018-09-18T06:46:41.968Z,15.55
2018-09-18T06:49:12.179Z,15.53
2018-09-18T06:51:43.229Z,15.59
2018-09-18T06:54:17.245Z,15.65
2018-09-18T06:56:48.094Z,15.67
2018-09-18T06:59:24.047Z,15.75
2018-09-18T07:01:56.152Z,15.84
2018-09-18T07:04:27.329Z,15.91
2018-09-18T07:06:58.434Z,16.00
2018-09-18T07:09:30.663Z,16.12
2018-09-18T07:12:02.326Z,16.28
2018-09-18T07:14:36.849Z,16.42
2018-09-18T07:17:16.450Z,16.49
2018-09-18T07:19:54.384Z,16.76
2018-09-18T07:22:29.850Z,16.88
2018-09-18T07:25:01.677Z,16.96
2018-09-18T07:27:35.650Z,17.19
2018-09-18T07:30:13.408Z,17.32
2018-09-18T07:32:49.335Z,17.54
2018-09-18T07:35:29.883Z,17.72
2018-09-18T07:38:05.183Z,17.88
2018-09-18T07:40:44.592Z,18.02
2018-09-18T07:43:21.324Z,18.19
2018-09-18T07:45:59.118Z,18.41
2018-09-18T07:48:38.680Z,18.46
2018-09-18T07:51:12.483Z,18.73
2018-09-18T07:53:45.572Z,18.84
2018-09-18T07:56:16.654Z,19.00
2018-09-18T07:58:50.713Z,19.16
2018-09-18T08:01:22.880Z,19.26
2018-09-18T08:03:54.605Z,19.47
2018-09-18T08:06:29.128Z,19.63
2018-09-18T08:09:01.824Z,19.82
2018-09-18T08:11:39.651Z,19.93
2018-09-18T08:14:12.466Z,20.06
2018-09-18T08:16:49.073Z,20.16
2018-09-18T08:19:23.174Z,20.31
2018-09-18T08:21:56.997Z,20.36
2018-09-18T08:24:29.811Z,20.46
2018-09-18T08:27:06.344Z,20.71
2018-09-18T08:29:38.891Z,20.93
2018-09-18T08:32:14.019Z,21.14
2018-09-18T08:34:49.800Z,21.27
2018-09-18T08:37:20.757Z,21.43
2018-09-18T08:39:52.731Z,21.61
2018-09-18T08:42:26.174Z,21.69
2018-09-18T08:45:06.181Z,21.88
2018-09-18T08:47:43.661Z,21.97
2018-09-18T08:50:15.520Z,22.18
2018-09-18T08:52:48.557Z,22.19
2018-09-18T08:55:19.305Z,22.43
2018-09-18T08:57:52.624Z,22.58
2018-09-18T09:00:23.930Z,22.78
2018-09-18T09:02:56.520Z,23.03
2018-09-18T09:05:34.518Z,23.26
2018-09-18T09:08:09.937Z,23.33
2018-09-18T09:10:49.180Z,23.48
2018-09-18T09:13:22.757Z,23.39
2018-09-18T09:15:56.686Z,23.40
2018-09-18T09:18:32.674Z,23.52
2018-09-18T09:21:04.894Z,23.69
2018-09-18T09:23:36.740Z,23.92
2018-09-18T09:26:09.068Z,23.87
2018-09-18T09:28:41.853Z,24.08
2018-09-18T09:31:18.163Z,24.24
2018-09-18T09:33:49.306Z,24.43
2018-09-18T09:36:22.785Z,24.43
2018-09-18T09:38:53.127Z,24.57
2018-09-18T09:41:25.040Z,24.59
2018-09-18T09:44:07.432Z,24.72
2018-09-18T09:46:39.436Z,25.12
2018-09-18T09:49:13.169Z,25.22
2018-09-18T09:51:51.166Z,25.20
2018-09-18T09:54:24.183Z,25.36
2018-09-18T09:57:02.946Z,25.61
2018-09-18T09:59:38.712Z,25.73
2018-09-18T10:02:18.929Z,25.91
2018-09-18T10:04:59.723Z,26.08
2018-09-18T10:07:32.203Z,26.14
2018-09-18T10:10:17.487Z,26.24
2018-09-18T10:12:53.882Z,26.43
2018-09-18T10:15:31.151Z,26.43
2018-09-18T10:18:11.238Z,26.57
2018-09-18T10:20:45.987Z,26.53
2018-09-18T10:23:18.122Z,26.73
2018-09-18T10:25:50.940Z,26.89
2018-09-18T10:28:37.221Z,26.92
2018-09-18T10:31:08.812Z,27.10
2018-09-18T10:33:43.870Z,27.18
2018-09-18T10:36:21.844Z,27.20
2018-09-18T10:38:53.075Z,27.25
2018-09-18T10:41:27.744Z,27.29
2018-09-18T10:44:08.232Z,27.32
2018-09-18T10:46:48.131Z,27.48
2018-09-18T10:49:22.465Z,27.55
2018-09-18T10:52:04.093Z,27.71
2018-09-18T10:54:41.834Z,27.90
2018-09-18T10:57:24.885Z,27.99
2018-09-18T11:00:01.906Z,28.04
2018-09-18T11:02:38.720Z,28.07
2018-09-18T11:05:14.334Z,28.02
2018-09-18T11:07:49.721Z,28.19
2018-09-18T11:10:31.225Z,28.33
2018-09-18T11:13:04.040Z,29.05
2018-09-18T11:15:44.079Z,30.58
2018-09-18T11:18:19.639Z,31.60
2018-09-18T11:20:51.993Z,31.96
2018-09-18T11:23:23.941Z,31.95
2018-09-18T11:25:58.781Z,32.67
2018-09-18T11:28:42.602Z,33.50
2018-09-18T11:31:23.546Z,34.13
2018-09-18T11:33:59.314Z,33.35
2018-09-18T11:36:33.071Z,34.36
2018-09-18T11:39:09.435Z,34.35
2018-09-18T11:41:48.647Z,34.33
2018-09-18T11:44:41.852Z,34.99
2018-09-18T11:47:25.038Z,35.30
2018-09-18T11:50:00.927Z,35.44
2018-09-18T11:52:34.927Z,35.69
2018-09-18T11:55:21.900Z,36.31
2018-09-18T11:57:55.148Z,34.71
2018-09-18T12:00:31.798Z,35.36
2018-09-18T12:03:07.304Z,36.71
2018-09-18T12:05:42.110Z,35.94
2018-09-18T12:08:17.171Z,36.17
2018-09-18T12:10:54.799Z,34.04
2018-09-18T12:13:31.709Z,32.71
2018-09-18T12:16:12.839Z,32.30
2018-09-18T12:19:00.084Z,31.64
2018-09-18T12:21:40.683Z,31.66
2018-09-18T12:24:16.676Z,31.85
2018-09-18T12:26:59.546Z,31.53
2018-09-18T12:29:45.882Z,31.29
2018-09-18T12:32:36.580Z,31.91
2018-09-18T12:35:17.733Z,33.78
2018-09-18T12:40:39.254Z,36.38
2018-09-18T12:43:22.167Z,36.88
2018-09-18T12:46:23.784Z,37.94
2018-09-18T12:49:04.407Z,38.40
2018-09-18T12:51:45.728Z,38.31
2018-09-18T12:57:06.748Z,38.67
2018-09-18T12:59:50.303Z,39.73
2018-09-18T13:02:50.343Z,39.95
2018-09-18T13:05:26.021Z,39.96
2018-09-18T13:08:25.192Z,41.18
2018-09-18T13:11:05.059Z,39.92
2018-09-18T13:13:50.916Z,39.68
2018-09-18T13:16:33.319Z,40.35
2018-09-18T13:21:54.906Z,40.96
2018-09-18T13:25:19.294Z,40.40
2018-09-18T13:27:58.905Z,38.95
2018-09-18T13:30:37.849Z,38.64
2018-09-18T13:36:25.443Z,39.23
2018-09-18T13:39:01.006Z,40.66
2018-09-18T13:47:26.777Z,40.55
2018-09-18T13:50:08.274Z,40.27
2018-09-18T13:52:45.643Z,40.40
2018-09-18T13:55:24.720Z,40.44
2018-09-18T13:58:09.787Z,39.03
2018-09-18T14:00:45.816Z,35.74
2018-09-18T14:03:25.980Z,34.36
2018-09-18T14:06:10.392Z,32.48
2018-09-18T14:08:46.640Z,32.22
2018-09-18T14:11:30.290Z,31.87
2018-09-18T14:14:11.837Z,31.40
2018-09-18T14:16:54.221Z,31.28
2018-09-18T14:19:37.069Z,31.19
2018-09-18T14:22:21.927Z,31.00
2018-09-18T14:24:57.801Z,30.98
2018-09-18T14:27:36.623Z,30.62
2018-09-18T14:30:22.902Z,30.72
2018-09-18T14:32:57.482Z,30.55
2018-09-18T14:35:43.675Z,30.44
2018-09-18T14:38:30.029Z,30.41
2018-09-18T14:41:21.577Z,30.29
2018-09-18T14:46:56.018Z,30.27
2018-09-18T14:49:41.843Z,30.12
2018-09-18T14:52:34.608Z,30.22
2018-09-18T14:55:23.443Z,30.17
2018-09-18T14:58:10.884Z,30.09
2018-09-18T15:00:50.386Z,30.01
2018-09-18T15:03:28.389Z,29.96
2018-09-18T15:06:15.592Z,29.85
2018-09-18T15:08:58.191Z,29.86
2018-09-18T15:11:36.255Z,29.80
2018-09-18T15:20:27.470Z,29.59
2018-09-18T15:23:10.496Z,29.50
2018-09-18T15:25:52.609Z,29.46
2018-09-18T15:28:32.523Z,29.28
2018-09-18T15:34:30.717Z,29.29
2018-09-18T15:37:11.887Z,29.32
2018-09-18T15:39:53.704Z,29.24
2018-09-18T15:42:34.680Z,29.09
2018-09-18T15:45:13.157Z,29.13
2018-09-18T15:48:01.052Z,29.00
2018-09-18T15:50:39.802Z,28.95
2018-09-18T15:53:18.100Z,28.91
2018-09-18T15:55:56.068Z,28.65
2018-09-18T15:58:34.229Z,28.62
2018-09-18T16:01:23.802Z,28.61
2018-09-18T16:04:12.189Z,28.23
2018-09-18T16:12:50.252Z,27.80
2018-09-18T16:18:27.709Z,27.87
2018-09-18T16:21:09.938Z,27.85
2018-09-18T16:24:02.711Z,27.67
2018-09-18T16:26:45.030Z,27.23
2018-09-18T16:29:38.079Z,27.05
2018-09-18T16:35:14.349Z,26.47
2018-09-18T16:37:54.600Z,26.14
2018-09-18T16:40:40.003Z,26.00
2018-09-18T16:43:18.893Z,25.96
2018-09-18T16:49:06.827Z,25.25
2018-09-18T16:51:54.916Z,24.98
2018-09-18T16:54:44.716Z,24.86
2018-09-18T16:57:31.644Z,24.71
2018-09-18T17:00:14.480Z,24.57
2018-09-18T17:05:39.265Z,24.08
2018-09-18T17:08:24.052Z,23.86
2018-09-18T17:11:19.890Z,23.50
2018-09-18T17:16:57.866Z,23.26
2018-09-18T17:19:38.755Z,23.08
2018-09-18T17:22:24.222Z,22.96
2018-09-18T17:25:07.277Z,22.99
2018-09-18T17:27:54.271Z,22.68
2018-09-18T17:30:34.139Z,22.56
2018-09-18T17:33:12.732Z,22.23
2018-09-18T17:35:58.968Z,22.08
2018-09-18T17:38:47.982Z,21.83
2018-09-18T17:41:25.046Z,21.75
2018-09-18T17:44:22.294Z,21.67
2018-09-18T17:47:10.051Z,21.65
2018-09-18T17:49:50.668Z,21.54
2018-09-18T17:52:31.471Z,21.36
2018-09-18T17:55:20.785Z,21.23
2018-09-18T17:57:56.073Z,21.11
2018-09-18T18:00:43.144Z,20.99
2018-09-18T18:03:36.330Z,21.11
2018-09-18T18:06:16.672Z,20.96
2018-09-18T18:09:01.725Z,20.75
2018-09-18T18:11:46.023Z,20.71
2018-09-18T18:14:41.042Z,20.62
2018-09-18T18:18:58.707Z,20.46
2018-09-18T18:21:38.053Z,20.26
2018-09-18T18:24:23.664Z,20.20
2018-09-18T18:27:11.837Z,20.25
2018-09-18T18:29:50.745Z,20.19
2018-09-18T18:32:37.461Z,20.09
2018-09-18T18:35:22.383Z,19.91
2018-09-18T18:38:13.593Z,19.81
2018-09-18T18:41:01.143Z,19.73
2018-09-18T18:44:48.550Z,19.71
2018-09-18T18:47:37.418Z,19.60
2018-09-18T18:50:22.372Z,19.48
2018-09-18T18:53:13.511Z,19.43
2018-09-18T18:55:55.072Z,19.37
2018-09-18T18:58:52.626Z,19.30
2018-09-18T19:01:38.401Z,19.21
2018-09-18T19:10:05.704Z,18.93
2018-09-18T19:12:56.913Z,18.89
2018-09-18T19:15:47.236Z,18.82
2018-09-18T19:18:41.596Z,18.77
2018-09-18T19:21:21.869Z,18.78
2018-09-18T19:24:15.516Z,18.66
2018-09-18T19:29:41.060Z,18.47
2018-09-18T19:32:18.758Z,18.44
2018-09-18T19:35:07.467Z,18.36
2018-09-18T19:37:43.906Z,18.30
2018-09-18T19:40:30.331Z,18.25
2018-09-18T19:43:14.863Z,18.15
2018-09-18T19:45:57.009Z,18.27
2018-09-18T19:49:11.772Z,18.23
2018-09-18T19:51:53.464Z,18.06
2018-09-18T19:54:33.767Z,17.95
2018-09-18T19:57:13.121Z,17.87
2018-09-18T20:02:46.449Z,17.74
2018-09-18T20:05:24.117Z,17.70
2018-09-18T20:08:19.747Z,17.64
2018-09-18T20:11:03.957Z,17.58
2018-09-18T20:13:43.863Z,17.53
2018-09-18T20:16:25.288Z,17.48
2018-09-18T20:19:07.837Z,17.41
2018-09-18T20:21:51.803Z,17.35
2018-09-18T20:24:30.816Z,17.29
2018-09-18T20:27:10.102Z,17.20
2018-09-18T20:29:51.407Z,17.23
2018-09-18T20:32:31.227Z,17.19
2018-09-18T20:37:58.057Z,17.18
2018-09-18T20:40:40.711Z,17.25
2018-09-18T20:43:18.719Z,17.19
2018-09-18T20:49:24.194Z,17.03
2018-09-18T20:57:37.600Z,16.88
2018-09-18T21:00:18.632Z,16.81
2018-09-18T21:02:59.245Z,16.70
2018-09-18T21:05:37.942Z,16.76
2018-09-18T21:08:17.801Z,16.74
2018-09-18T21:10:55.403Z,16.69
2018-09-18T21:13:32.289Z,16.69
2018-09-18T21:16:11.165Z,16.75
2018-09-18T21:21:29.531Z,16.65
2018-09-18T21:24:03.415Z,16.56
2018-09-18T21:26:38.257Z,16.45
2018-09-18T21:29:10.090Z,16.42
2018-09-18T21:31:46.750Z,16.43
2018-09-18T21:34:19.728Z,16.45
2018-09-18T21:39:29.726Z,16.33
2018-09-18T21:42:07.435Z,16.33
2018-09-18T21:45:07.387Z,16.35
2018-09-18T21:47:47.289Z,16.45
2018-09-18T21:50:18.388Z,16.36
2018-09-18T21:52:49.749Z,16.31
2018-09-18T21:55:20.788Z,16.28
2018-09-18T21:57:54.250Z,16.14
2018-09-18T22:00:30.091Z,16.10
2018-09-18T22:03:03.643Z,16.05
2018-09-18T22:05:34.917Z,16.07
2018-09-18T22:08:06.451Z,16.12
2018-09-18T22:10:37.876Z,16.20
2018-09-18T22:13:09.410Z,16.24
2018-09-18T22:15:42.374Z,16.20
2018-09-18T22:18:12.929Z,16.18
2018-09-18T22:20:43.339Z,16.04
2018-09-18T22:23:13.182Z,15.97
2018-09-18T22:25:43.307Z,15.88
2018-09-18T22:28:13.783Z,15.83
2018-09-18T22:30:44.955Z,15.85
2018-09-18T22:33:16.105Z,15.88
2018-09-18T22:35:46.125Z,15.85
2018-09-18T22:38:15.309Z,15.81
2018-09-18T22:40:45.703Z,15.84
2018-09-18T22:43:16.708Z,15.77
2018-09-18T22:45:46.513Z,15.74
2018-09-18T22:48:16.021Z,15.82
2018-09-18T22:50:45.284Z,15.79
2018-09-18T22:53:14.453Z,15.73
2018-09-18T22:55:44.470Z,15.71
2018-09-18T22:58:14.382Z,15.64
2018-09-18T23:00:43.898Z,15.69
2018-09-18T23:03:13.690Z,15.77
2018-09-18T23:05:43.367Z,15.66
2018-09-18T23:08:12.441Z,15.75
2018-09-18T23:10:41.675Z,15.68
2018-09-18T23:13:11.299Z,15.73
2018-09-18T23:15:40.173Z,15.64
2018-09-18T23:18:09.226Z,15.62
2018-09-18T23:20:38.712Z,15.60
2018-09-18T23:23:07.604Z,15.51
2018-09-18T23:25:36.730Z,15.53
2018-09-18T23:28:06.855Z,15.50
2018-09-18T23:30:36.437Z,15.48
2018-09-18T23:33:05.715Z,15.48
2018-09-18T23:35:34.939Z,15.57
2018-09-18T23:39:13.032Z,15.44
2018-09-18T23:41:42.929Z,15.46
2018-09-18T23:44:12.108Z,15.50
2018-09-18T23:46:41.103Z,15.43
2018-09-18T23:49:09.779Z,15.35
2018-09-18T23:51:39.568Z,15.30
2018-09-18T23:54:08.717Z,15.42
2018-09-18T23:56:37.584Z,15.34
2018-09-18T23:59:07.742Z,15.52
